Time;durP1;ratioP1;P1;durP2;ratioP2;P2;SDS_P1;SDS_P2;PMS_P1;PMS_P2;Temp;Humidity;BMP_temperature;BMP_pressure;BME280_temperature;BME280_humidity;BME280_pressure;Samples;Min_cycle;Max_cycle;Signal;HPM_P1;HPM_P2
2021/09/02 00:00:43;;;;;;;2.30;2.20;;;;;;;17.70;55.02;101772.53;4941152;28;20081;-77
2021/09/02 00:03:08;;;;;;;1.92;1.83;;;;;;;17.69;54.56;101781.94;4958199;28;20043;-73
2021/09/02 00:05:34;;;;;;;1.92;1.83;;;;;;;17.66;54.75;101776.97;4946820;28;20465;-74
2021/09/02 00:07:59;;;;;;;2.47;2.28;;;;;;;17.66;54.91;101771.44;4981353;28;20037;-75
2021/09/02 00:10:25;;;;;;;2.20;2.00;;;;;;;17.67;54.48;101778.59;4974943;28;20027;-74
2021/09/02 00:12:51;;;;;;;1.83;1.73;;;;;;;17.66;54.51;101776.97;4967084;28;20034;-75
2021/09/02 00:15:16;;;;;;;1.75;1.67;;;;;;;17.63;54.73;101773.63;4953798;28;20030;-74
2021/09/02 00:17:42;;;;;;;1.67;1.58;;;;;;;17.61;54.90;101770.31;4958605;28;20111;-74
2021/09/02 00:20:08;;;;;;;1.27;1.20;;;;;;;17.63;54.70;101770.84;4974866;28;20026;-72
2021/09/02 00:22:33;;;;;;;1.25;1.25;;;;;;;17.62;54.70;101772.00;4973898;28;20023;-74
2021/09/02 00:24:59;;;;;;;2.20;2.10;;;;;;;17.62;54.94;101772.00;4970797;28;20026;-74
2021/09/02 00:27:24;;;;;;;2.30;2.20;;;;;;;17.63;54.99;101770.84;4972719;28;20081;-73
2021/09/02 00:29:50;;;;;;;2.08;1.98;;;;;;;17.63;54.70;101768.09;4971343;28;20857;-73
2021/09/02 00:32:17;;;;;;;1.48;1.40;;;;;;;17.63;54.64;101762.56;4948209;28;20123;-73
2021/09/02 00:34:43;;;;;;;2.40;2.20;;;;;;;17.62;55.03;101763.69;4972125;28;20030;-73
2021/09/02 00:37:08;;;;;;;2.22;2.13;;;;;;;17.63;54.60;101762.56;4976013;28;20039;-73
2021/09/02 00:39:34;;;;;;;2.00;1.90;;;;;;;17.63;54.70;101757.03;4975208;28;20030;-77
2021/09/02 00:41:59;;;;;;;2.40;2.30;;;;;;;17.61;54.70;101753.72;4974797;28;20466;-73
2021/09/02 00:44:39;;;;;;;2.00;1.90;;;;;;;17.60;54.73;101743.75;4971546;28;20058;-73
2021/09/02 00:47:06;;;;;;;1.75;1.73;;;;;;;17.56;55.08;101742.66;4958125;28;20031;-74
2021/09/02 00:49:33;;;;;;;3.58;2.22;;;;;;;17.58;54.64;101737.69;4972989;28;20050;-73
2021/09/02 00:52:00;;;;;;;2.63;2.42;;;;;;;17.55;55.03;101743.81;4975494;28;20027;-74
2021/09/02 00:54:26;;;;;;;2.65;2.50;;;;;;;17.53;54.88;101739.66;4956550;28;20031;-76
2021/09/02 00:56:52;;;;;;;2.42;2.30;;;;;;;17.56;54.89;101742.66;4981821;28;20811;-73
2021/09/02 00:59:17;;;;;;;3.42;3.22;;;;;;;17.54;54.71;101733.84;4969240;28;20100;-74
2021/09/02 01:01:43;;;;;;;3.05;2.88;;;;;;;17.52;55.11;101727.78;4970644;28;20022;-74
2021/09/02 01:04:09;;;;;;;3.05;2.58;;;;;;;17.51;55.24;101725.25;4971252;28;20109;-73
2021/09/02 01:06:35;;;;;;;2.85;2.65;;;;;;;17.49;54.97;101728.31;4972534;28;20067;-74
2021/09/02 01:09:01;;;;;;;3.45;3.10;;;;;;;17.51;54.98;101726.09;4952653;28;20077;-74
2021/09/02 01:11:27;;;;;;;3.35;3.15;;;;;;;17.50;55.04;101729.97;4974820;28;20050;-73
2021/09/02 01:13:52;;;;;;;2.53;2.38;;;;;;;17.50;55.25;101729.97;4978765;28;20035;-73
2021/09/02 01:16:17;;;;;;;2.80;2.70;;;;;;;17.47;54.71;101716.72;4973412;28;22640;-73
2021/09/02 01:18:43;;;;;;;5.20;2.30;;;;;;;17.47;55.17;101729.72;4960594;28;20047;-74
2021/09/02 01:21:08;;;;;;;2.75;2.50;;;;;;;17.45;54.49;101719.75;4971239;28;20065;-75
2021/09/02 01:23:36;;;;;;;3.55;3.35;;;;;;;17.45;54.54;101722.53;4959374;28;20078;-74
2021/09/02 01:26:18;;;;;;;2.70;2.60;;;;;;;17.45;55.16;101716.19;4971434;28;20065;-75
2021/09/02 01:28:45;;;;;;;3.42;3.22;;;;;;;17.42;54.81;101717.56;4958717;28;20125;-80
2021/09/02 01:31:14;;;;;;;3.33;3.10;;;;;;;17.47;54.61;101725.00;4956218;28;20035;-76
2021/09/02 01:33:47;;;;;;;3.20;3.03;;;;;;;17.49;54.87;101713.66;4973382;28;20047;-76
2021/09/02 01:36:13;;;;;;;2.60;2.50;;;;;;;17.49;54.50;101720.00;4967390;28;20393;-75
2021/09/02 01:38:39;;;;;;;2.90;2.75;;;;;;;17.48;54.48;101720.28;4972103;28;20026;-73
2021/09/02 01:41:04;;;;;;;2.60;2.50;;;;;;;17.45;54.58;101716.19;4972709;28;20046;-74
2021/09/02 01:43:30;;;;;;;2.72;2.60;;;;;;;17.43;54.46;101719.22;4963778;28;20031;-73
2021/09/02 01:45:56;;;;;;;2.58;2.47;;;;;;;17.45;54.91;101721.72;4969036;28;20038;-74
2021/09/02 01:48:21;;;;;;;2.50;2.33;;;;;;;17.41;54.75;101715.91;4963623;28;20564;-74
2021/09/02 01:50:47;;;;;;;2.97;2.78;;;;;;;17.41;54.67;101715.06;4972755;28;20022;-73
2021/09/02 01:53:14;;;;;;;3.47;3.20;;;;;;;17.39;54.87;101711.75;4972419;28;20046;-74
2021/09/02 01:55:41;;;;;;;2.55;2.45;;;;;;;17.36;54.47;101706.78;4968529;28;20355;-74
2021/09/02 01:58:07;;;;;;;2.17;2.08;;;;;;;17.38;54.77;101715.66;4970996;28;20084;-73
2021/09/02 02:00:34;;;;;;;2.30;2.13;;;;;;;17.35;54.40;101707.91;4959352;28;20026;-74
2021/09/02 02:03:00;;;;;;;3.03;2.50;;;;;;;17.35;54.65;101710.69;4943195;28;20513;-74
2021/09/02 02:05:25;;;;;;;3.38;3.08;;;;;;;17.33;54.72;101699.06;4975926;28;20033;-73
2021/09/02 02:07:51;;;;;;;3.42;3.13;;;;;;;17.33;54.74;101696.28;4963031;28;20042;-72
2021/09/02 02:10:20;;;;;;;3.30;3.00;;;;;;;17.31;54.87;101704.06;4975091;28;20721;-73
2021/09/02 02:12:46;;;;;;;3.15;3.00;;;;;;;17.28;54.69;101695.19;4970955;28;20108;-73
2021/09/02 02:15:12;;;;;;;3.40;3.20;;;;;;;17.28;54.51;101695.19;4966880;28;20422;-72
2021/09/02 02:17:39;;;;;;;2.53;2.42;;;;;;;17.26;54.86;101702.13;4973180;28;20584;-72
2021/09/02 02:20:05;;;;;;;2.83;2.72;;;;;;;17.23;54.77;101697.97;4957570;28;20056;-73
2021/09/02 02:22:31;;;;;;;3.40;3.10;;;;;;;17.23;54.73;101688.84;4967819;28;20049;-72
2021/09/02 02:24:56;;;;;;;3.72;2.55;;;;;;;17.22;54.88;101682.50;4952367;28;20032;-72
2021/09/02 02:27:24;;;;;;;5.05;3.05;;;;;;;17.22;54.59;101679.72;4972378;28;20398;-74
2021/09/02 02:29:51;;;;;;;3.40;3.20;;;;;;;17.21;54.74;101678.06;4976187;28;20027;-74
2021/09/02 02:32:17;;;;;;;2.00;1.90;;;;;;;17.22;54.25;101678.91;4973312;28;20108;-77
2021/09/02 02:34:42;;;;;;;1.95;1.85;;;;;;;17.20;54.09;101670.06;4975807;28;20106;-74
2021/09/02 02:37:08;;;;;;;3.35;2.42;;;;;;;17.19;54.67;101663.72;4966802;28;20490;-75
2021/09/02 02:39:37;;;;;;;2.95;2.75;;;;;;;17.17;54.42;101659.56;4957070;28;20492;-74
2021/09/02 02:42:07;;;;;;;2.90;2.72;;;;;;;17.17;54.38;101660.41;4964861;28;20031;-75
2021/09/02 02:44:33;;;;;;;2.42;2.28;;;;;;;17.16;54.31;101669.81;4970319;28;20034;-75
2021/09/02 02:46:59;;;;;;;2.33;2.13;;;;;;;17.15;54.23;101665.38;4969173;28;20030;-75
2021/09/02 02:49:24;;;;;;;1.38;1.30;;;;;;;17.15;54.19;101668.13;4976078;28;20101;-73
2021/09/02 02:51:52;;;;;;;1.88;1.77;;;;;;;17.13;54.51;101664.84;4969130;28;20031;-74
2021/09/02 02:54:17;;;;;;;3.00;2.53;;;;;;;17.13;54.44;101661.22;4967815;28;20038;-73
2021/09/02 02:56:43;;;;;;;1.67;1.60;;;;;;;17.10;54.27;101662.63;4965852;28;20030;-73
2021/09/02 02:59:08;;;;;;;1.92;1.83;;;;;;;17.12;54.19;101662.38;4966745;28;20046;-71
2021/09/02 03:01:34;;;;;;;2.42;2.33;;;;;;;17.13;54.33;101659.31;4969089;28;20019;-73
2021/09/02 03:03:59;;;;;;;5.57;2.50;;;;;;;17.13;54.20;101659.31;4954172;28;20046;-74
2021/09/02 03:06:24;;;;;;;5.15;2.67;;;;;;;17.14;54.48;101644.38;4953502;28;20030;-74
2021/09/02 03:08:50;;;;;;;2.75;2.65;;;;;;;17.08;54.30;101651.88;4966890;28;20121;-72
2021/09/02 03:11:15;;;;;;;4.20;3.80;;;;;;;17.09;54.51;101647.16;4955087;28;20031;-72
2021/09/02 03:13:41;;;;;;;5.95;4.70;;;;;;;17.10;54.63;101649.63;4963000;28;20027;-75
2021/09/02 03:16:08;;;;;;;4.55;4.25;;;;;;;17.08;54.75;101651.03;4958302;28;20495;-74
2021/09/02 03:18:33;;;;;;;4.95;4.55;;;;;;;17.01;54.94;101647.72;4955832;28;20077;-73
2021/09/02 03:20:59;;;;;;;3.67;3.47;;;;;;;17.00;54.82;101648.84;4956788;28;20027;-76
2021/09/02 03:23:24;;;;;;;3.90;3.60;;;;;;;16.99;55.03;101648.00;4976565;28;20018;-75
2021/09/02 03:25:49;;;;;;;3.67;3.47;;;;;;;16.98;54.84;101646.38;4986357;28;20376;-74
2021/09/02 03:28:15;;;;;;;4.22;3.60;;;;;;;16.97;54.88;101646.63;4983964;28;20053;-73
2021/09/02 03:30:41;;;;;;;3.22;3.03;;;;;;;16.96;54.94;101650.50;4986339;28;20027;-73
2021/09/02 03:33:06;;;;;;;3.38;3.10;;;;;;;16.93;55.48;101644.41;4965550;28;20058;-73
2021/09/02 03:35:31;;;;;;;7.40;3.15;;;;;;;16.93;55.07;101644.41;4961227;28;20110;-74
2021/09/02 03:37:57;;;;;;;4.03;3.45;;;;;;;16.93;55.38;101643.59;4936498;28;20118;-71
2021/09/02 03:40:22;;;;;;;2.65;2.45;;;;;;;16.92;55.36;101642.78;4951186;28;20447;-72
2021/09/02 03:42:48;;;;;;;3.30;3.00;;;;;;;16.88;55.15;101633.41;4949651;28;20042;-74
2021/09/02 03:45:13;;;;;;;3.28;3.00;;;;;;;16.90;55.30;101633.94;4963597;28;20039;-73
2021/09/02 03:47:45;;;;;;;3.00;2.90;;;;;;;16.88;55.43;101633.41;4953156;28;20027;-73
2021/09/02 03:50:11;;;;;;;4.20;3.90;;;;;;;16.88;55.65;101638.91;4933675;29;20134;-73
2021/09/02 03:52:36;;;;;;;3.25;3.05;;;;;;;16.87;55.77;101631.72;4949112;28;20039;-72
2021/09/02 03:55:02;;;;;;;3.70;3.40;;;;;;;16.85;55.90;101625.63;4941174;28;20438;-72
2021/09/02 03:57:27;;;;;;;3.97;3.65;;;;;;;16.86;55.87;101624.50;4944539;28;20458;-72
2021/09/02 03:59:52;;;;;;;3.78;3.55;;;;;;;16.86;55.76;101632.78;4949012;28;20027;-72
2021/09/02 04:02:18;;;;;;;3.63;3.42;;;;;;;16.84;55.88;101623.97;4948571;28;20036;-73
2021/09/02 04:04:43;;;;;;;3.63;3.33;;;;;;;16.85;56.18;101628.41;4947714;28;20411;-72
2021/09/02 04:07:09;;;;;;;6.60;4.20;;;;;;;16.87;55.90;101631.72;4940582;28;20370;-72
2021/09/02 04:09:34;;;;;;;3.05;2.75;;;;;;;16.87;56.14;101640.00;4950446;28;20058;-72
2021/09/02 04:11:59;;;;;;;4.30;3.20;;;;;;;16.88;55.98;101638.91;4948137;28;20031;-73
2021/09/02 04:14:25;;;;;;;2.65;2.55;;;;;;;16.87;55.87;101623.44;4951017;28;20406;-73
2021/09/02 04:16:50;;;;;;;3.58;3.28;;;;;;;16.85;56.20;101620.13;4961950;28;20023;-72
2021/09/02 04:19:16;;;;;;;3.28;3.08;;;;;;;16.86;56.40;101624.50;4949628;28;20098;-74
2021/09/02 04:21:41;;;;;;;4.07;3.58;;;;;;;16.84;56.41;101623.97;4951146;28;20093;-75
2021/09/02 04:24:07;;;;;;;2.55;2.45;;;;;;;16.84;56.19;101614.88;4950230;28;20035;-74
2021/09/02 04:26:32;;;;;;;2.97;2.50;;;;;;;16.82;56.53;101620.66;4962107;28;20504;-74
2021/09/02 04:28:57;;;;;;;3.33;3.13;;;;;;;16.80;56.56;101616.53;4947473;28;20062;-74
2021/09/02 04:31:23;;;;;;;3.33;2.10;;;;;;;16.78;56.64;101608.53;4936749;29;20027;-73
2021/09/02 04:33:48;;;;;;;3.00;2.90;;;;;;;16.77;56.67;101612.38;4973876;28;20085;-75
2021/09/02 04:36:14;;;;;;;2.80;2.70;;;;;;;16.73;56.71;101612.13;4948278;28;20113;-74
2021/09/02 04:38:39;;;;;;;4.00;3.70;;;;;;;16.70;57.18;101606.31;4974554;28;20038;-74
2021/09/02 04:41:05;;;;;;;2.83;2.70;;;;;;;16.69;57.11;101611.03;4970268;28;20107;-73
2021/09/02 04:43:30;;;;;;;3.00;2.80;;;;;;;16.65;57.12;101603.56;4956113;28;20047;-74
2021/09/02 04:45:56;;;;;;;4.18;2.92;;;;;;;16.68;57.14;101608.53;4969563;28;20027;-74
2021/09/02 04:48:22;;;;;;;6.32;3.05;;;;;;;16.67;57.32;101610.44;4974614;28;20047;-74
2021/09/02 04:50:49;;;;;;;2.60;2.47;;;;;;;16.69;57.57;101607.41;4952007;28;20192;-73
2021/09/02 04:53:15;;;;;;;2.58;2.47;;;;;;;16.69;57.52;101610.19;4969859;28;20077;-75
2021/09/02 04:55:40;;;;;;;8.15;2.72;;;;;;;16.69;57.80;101610.19;4955712;28;20532;-74
2021/09/02 04:58:08;;;;;;;2.75;2.50;;;;;;;16.71;57.77;101610.75;4971230;28;20050;-73
2021/09/02 05:00:35;;;;;;;3.05;2.90;;;;;;;16.71;57.72;101607.97;4971764;28;20031;-74
2021/09/02 05:03:00;;;;;;;2.75;2.55;;;;;;;16.71;57.78;101610.75;4975824;28;20078;-76
2021/09/02 05:05:26;;;;;;;2.63;2.42;;;;;;;16.72;57.96;101609.66;4957605;28;20019;-76
2021/09/02 05:07:51;;;;;;;2.60;2.40;;;;;;;16.72;58.28;101610.47;4975199;28;20080;-75
2021/09/02 05:10:17;;;;;;;3.00;2.80;;;;;;;16.71;57.90;101603.28;4954015;28;20038;-74
2021/09/02 05:12:44;;;;;;;2.70;2.60;;;;;;;16.72;57.67;101606.88;4970023;28;20034;-74
2021/09/02 05:15:09;;;;;;;6.13;2.55;;;;;;;16.71;57.96;101607.97;4971668;28;20035;-73
2021/09/02 05:17:35;;;;;;;2.55;2.35;;;;;;;16.72;57.74;101604.13;4966273;28;20176;-73
2021/09/02 05:20:00;;;;;;;2.15;2.00;;;;;;;16.71;57.92;101602.47;4975043;28;20193;-75
2021/09/02 05:22:26;;;;;;;2.60;2.42;;;;;;;16.70;57.90;101606.31;4967964;28;20034;-72
2021/09/02 05:24:51;;;;;;;2.30;2.13;;;;;;;16.69;58.19;101608.25;4973544;28;20027;-73
2021/09/02 05:27:17;;;;;;;4.97;3.05;;;;;;;16.69;58.15;101621.22;4970793;28;20027;-74
2021/09/02 05:29:43;;;;;;;2.15;2.05;;;;;;;16.67;58.44;101610.44;4971519;28;20138;-74
2021/09/02 05:32:09;;;;;;;2.17;2.08;;;;;;;16.66;58.50;101611.59;4974562;28;20401;-74
2021/09/02 05:34:34;;;;;;;3.05;2.80;;;;;;;16.65;58.32;101614.63;4968649;28;20089;-73
2021/09/02 05:37:00;;;;;;;3.80;2.10;;;;;;;16.69;58.53;101627.59;4974555;28;20034;-74
2021/09/02 05:39:25;;;;;;;2.80;2.70;;;;;;;16.70;58.33;101625.66;4967131;28;20054;-74
2021/09/02 05:41:51;;;;;;;1.88;1.77;;;;;;;16.70;58.60;101622.88;4970703;28;20074;-73
2021/09/02 05:44:17;;;;;;;2.47;2.35;;;;;;;16.71;58.75;101625.38;4970200;28;20034;-74
2021/09/02 05:46:44;;;;;;;2.40;2.30;;;;;;;16.72;58.48;101624.28;4972302;28;20027;-76
2021/09/02 05:49:09;;;;;;;2.47;2.25;;;;;;;16.72;58.55;101617.94;4972351;28;20030;-76
2021/09/02 05:51:35;;;;;;;3.38;2.78;;;;;;;16.69;58.96;101627.59;4962458;28;20081;-77
2021/09/02 05:54:06;;;;;;;1.92;1.83;;;;;;;16.67;58.72;101615.97;4975043;28;20027;-77
2021/09/02 05:56:32;;;;;;;3.90;2.20;;;;;;;16.66;59.30;101616.25;4979709;28;20034;-77
2021/09/02 05:58:57;;;;;;;3.05;2.85;;;;;;;16.65;59.09;101603.56;4968541;28;20029;-75
2021/09/02 06:01:23;;;;;;;3.38;2.70;;;;;;;16.74;59.02;101618.47;4965425;28;20030;-75
2021/09/02 06:03:48;;;;;;;2.80;2.60;;;;;;;16.74;59.28;101619.28;4968288;28;20042;-74
2021/09/02 06:06:14;;;;;;;5.68;3.33;;;;;;;16.72;59.21;101623.47;4972444;28;20054;-72
2021/09/02 06:08:39;;;;;;;4.47;3.58;;;;;;;16.73;59.72;101625.94;4956344;28;20027;-71
2021/09/02 06:11:05;;;;;;;4.03;3.72;;;;;;;16.76;59.85;101632.81;4954017;28;20059;-76
2021/09/02 06:13:32;;;;;;;3.20;3.00;;;;;;;16.73;59.31;101625.09;4941987;28;20023;-74
2021/09/02 06:15:58;;;;;;;3.08;2.88;;;;;;;16.78;59.78;101640.81;4971645;28;20039;-73
2021/09/02 06:18:23;;;;;;;2.20;2.10;;;;;;;16.78;59.83;101635.28;4945831;28;20392;-74
2021/09/02 06:20:49;;;;;;;2.45;2.05;;;;;;;16.80;59.65;101631.16;4958978;28;20037;-74
2021/09/02 06:23:22;;;;;;;4.55;3.30;;;;;;;16.84;59.79;101634.22;4971913;28;20034;-75
2021/09/02 06:25:47;;;;;;;6.50;3.05;;;;;;;16.86;59.49;101632.78;4939915;28;20106;-73
2021/09/02 06:28:13;;;;;;;2.58;2.47;;;;;;;16.87;59.98;101617.06;4935201;29;20558;-76
2021/09/02 06:30:38;;;;;;;3.55;3.03;;;;;;;16.97;59.66;101630.03;4945123;28;20022;-72
2021/09/02 06:33:04;;;;;;;3.13;2.92;;;;;;;17.04;59.64;101630.56;4967725;28;20113;-73
2021/09/02 06:35:29;;;;;;;5.25;3.60;;;;;;;17.11;60.14;101633.88;4969442;28;20049;-72
2021/09/02 06:37:55;;;;;;;6.10;3.95;;;;;;;17.17;59.94;101631.94;4968380;28;20038;-74
2021/09/02 06:40:21;;;;;;;3.58;3.20;;;;;;;17.24;59.66;101632.47;4968859;28;20483;-73
2021/09/02 06:42:46;;;;;;;3.65;2.90;;;;;;;17.30;59.61;101630.50;4966648;28;20031;-72
2021/09/02 06:45:12;;;;;;;3.83;3.05;;;;;;;17.37;59.33;101631.03;4972960;28;20154;-74
2021/09/02 06:47:41;;;;;;;3.33;3.13;;;;;;;17.41;59.51;101626.59;4967836;28;21020;-73
2021/09/02 06:50:12;;;;;;;5.15;3.38;;;;;;;17.47;59.61;101625.47;4939748;28;20466;-74
2021/09/02 06:52:38;;;;;;;3.50;3.30;;;;;;;17.49;59.40;101623.22;4968302;28;20022;-73
2021/09/02 06:55:04;;;;;;;2.70;2.50;;;;;;;17.51;59.31;101618.25;4975817;28;20034;-76
2021/09/02 06:57:35;;;;;;;3.45;3.15;;;;;;;17.49;59.65;101628.75;4966027;28;20050;-75
2021/09/02 07:00:00;;;;;;;3.30;3.03;;;;;;;17.47;59.22;101633.75;4968802;28;20027;-72
2021/09/02 07:02:26;;;;;;;3.50;3.30;;;;;;;17.46;60.01;101643.16;4975999;28;20473;-71
2021/09/02 07:04:51;;;;;;;3.03;2.83;;;;;;;17.45;59.54;101644.28;4969609;28;20106;-72
2021/09/02 07:07:17;;;;;;;4.47;2.65;;;;;;;17.45;59.40;101647.06;4965701;28;20042;-71
2021/09/02 07:09:43;;;;;;;2.38;2.28;;;;;;;17.48;59.48;101646.47;4962582;28;20049;-71
2021/09/02 07:12:08;;;;;;;2.90;2.70;;;;;;;17.52;60.22;101647.56;4967943;28;20027;-71
2021/09/02 07:14:37;;;;;;;3.83;3.35;;;;;;;17.49;59.78;101645.34;4966374;28;20533;-72
2021/09/02 07:17:19;;;;;;;4.53;3.65;;;;;;;17.53;60.23;101646.44;4948425;28;20034;-72
2021/09/02 07:19:44;;;;;;;3.03;2.83;;;;;;;17.49;59.82;101650.88;4968079;28;20044;-72
2021/09/02 07:22:13;;;;;;;3.25;2.35;;;;;;;17.53;60.30;101653.94;4962853;28;20909;-71
2021/09/02 07:24:38;;;;;;;3.47;3.17;;;;;;;17.60;59.75;101646.97;4912170;28;20026;-70
2021/09/02 07:27:04;;;;;;;2.22;2.13;;;;;;;17.63;60.11;101646.41;4961909;28;20035;-72
2021/09/02 07:29:30;;;;;;;3.17;2.97;;;;;;;17.66;59.55;101638.66;4966729;28;20109;-73
2021/09/02 07:31:56;;;;;;;4.15;3.28;;;;;;;17.72;60.24;101637.50;4967918;28;20074;-74
2021/09/02 07:34:21;;;;;;;6.50;3.20;;;;;;;17.77;59.67;101640.22;4959281;28;20073;-73
2021/09/02 07:36:46;;;;;;;7.13;2.80;;;;;;;17.79;60.19;101643.56;4965117;28;20089;-72
2021/09/02 07:39:12;;;;;;;3.40;3.10;;;;;;;17.82;60.04;101637.44;4965888;28;20027;-72
2021/09/02 07:41:38;;;;;;;3.78;3.45;;;;;;;17.86;59.73;101635.78;4971602;28;20122;-74
2021/09/02 07:44:07;;;;;;;3.75;3.42;;;;;;;17.87;59.82;101631.06;4949944;28;20396;-71
2021/09/02 07:46:32;;;;;;;2.55;2.45;;;;;;;17.95;59.26;101631.31;4967121;28;20035;-71
2021/09/02 07:48:58;;;;;;;2.95;2.47;;;;;;;17.97;58.87;101628.25;4967964;28;20105;-71
2021/09/02 07:51:23;;;;;;;3.92;2.90;;;;;;;18.08;59.31;101637.34;4966332;28;20053;-70
2021/09/02 07:53:50;;;;;;;7.03;2.90;;;;;;;18.11;59.09;101645.06;4936851;28;20054;-73
2021/09/02 07:56:18;;;;;;;4.15;2.55;;;;;;;18.09;58.98;101637.03;4969678;28;20030;-72
2021/09/02 07:58:44;;;;;;;4.18;2.63;;;;;;;18.14;58.56;101645.28;4944066;28;20043;-72
2021/09/02 08:01:23;;;;;;;;;;;;;;;;;;;;;
2021/09/02 08:03:49;;;;;;;3.35;3.03;;;;;;;18.13;58.53;101637.28;4971868;28;20022;-71
2021/09/02 08:06:15;;;;;;;2.67;2.28;;;;;;;18.18;58.75;101645.56;4974763;28;20023;-73
2021/09/02 08:08:41;;;;;;;5.07;3.60;;;;;;;18.14;58.98;101636.19;4971614;28;20037;-73
2021/09/02 08:11:19;;;;;;;;;;;;;;;;;;;;;
2021/09/02 08:13:47;;;;;;;2.65;2.45;;;;;;;18.19;58.73;101638.88;4959909;28;20023;-72
2021/09/02 08:16:13;;;;;;;2.55;2.15;;;;;;;18.24;58.70;101644.41;4969975;28;20026;-73
2021/09/02 08:18:38;;;;;;;4.70;2.17;;;;;;;18.34;57.86;101654.59;4975442;28;20033;-74
2021/09/02 08:21:03;;;;;;;2.47;2.28;;;;;;;18.33;57.79;101643.81;4967225;28;20524;-72
2021/09/02 08:23:32;;;;;;;2.95;2.75;;;;;;;18.21;58.33;101631.16;4974152;28;20058;-74
2021/09/02 08:25:58;;;;;;;2.40;2.20;;;;;;;18.21;58.11;101639.44;4974313;28;20037;-72
2021/09/02 08:28:28;;;;;;;2.50;2.30;;;;;;;18.21;58.35;101635.84;4927224;28;20192;-73
2021/09/02 08:30:54;;;;;;;2.80;2.08;;;;;;;18.21;58.61;101639.44;4974466;28;20027;-74
2021/09/02 08:33:20;;;;;;;2.03;1.83;;;;;;;18.28;58.39;101637.19;4936841;28;20093;-72
2021/09/02 08:35:51;;;;;;;2.65;2.33;;;;;;;18.44;58.43;101642.59;4974009;28;20035;-73
2021/09/02 08:38:21;;;;;;;3.05;1.90;;;;;;;18.56;58.51;101644.97;4967567;28;20033;-73
2021/09/02 08:40:54;;;;;;;4.47;2.20;;;;;;;18.65;58.14;101646.00;4977151;28;20054;-72
2021/09/02 08:43:20;;;;;;;5.30;2.45;;;;;;;18.73;57.33;101650.09;4973241;28;20046;-73
2021/09/02 08:45:48;;;;;;;4.50;1.90;;;;;;;18.70;57.44;101645.94;4975187;28;20023;-77
2021/09/02 08:48:14;;;;;;;1.60;1.50;;;;;;;18.77;57.50;101659.47;4940252;28;20122;-76
2021/09/02 08:50:39;;;;;;;1.15;1.10;;;;;;;18.82;57.35;101648.31;4965354;28;20125;-76
2021/09/02 08:53:16;;;;;;;;;;;;;;;;;;;;;
2021/09/02 08:55:44;;;;;;;1.80;1.70;;;;;;;19.13;57.13;101656.38;4974105;28;20026;-77
2021/09/02 08:58:10;;;;;;;2.25;1.55;;;;;;;19.16;56.74;101642.75;4974499;28;20346;-74
2021/09/02 09:00:36;;;;;;;3.83;2.20;;;;;;;19.34;56.55;101646.69;4961755;28;20031;-74
2021/09/02 09:03:07;;;;;;;3.88;2.50;;;;;;;19.48;56.19;101646.00;4955537;28;20042;-73
2021/09/02 09:05:36;;;;;;;4.75;2.70;;;;;;;19.55;55.14;101643.66;4973738;28;20030;-74
2021/09/02 09:08:10;;;;;;;3.42;2.63;;;;;;;19.69;55.12;101655.69;4967688;28;20558;-76
2021/09/02 09:10:40;;;;;;;1.90;1.80;;;;;;;19.84;54.93;101662.16;4944566;28;20536;-76
2021/09/02 09:13:11;;;;;;;2.83;2.40;;;;;;;19.94;54.54;101647.34;4974755;28;20038;-76
2021/09/02 09:15:54;;;;;;;2.50;2.28;;;;;;;20.00;54.58;101652.50;4960534;28;20049;-75
2021/09/02 09:18:22;;;;;;;3.28;2.45;;;;;;;19.98;54.09;101635.31;4942256;28;20038;-76
2021/09/02 09:21:19;;;;;;;5.68;2.72;;;;;;;20.17;53.87;101651.16;4943950;28;20417;-76
2021/09/02 09:23:54;;;;;;;2.45;2.25;;;;;;;20.21;53.54;101650.25;4950468;28;20126;-78
2021/09/02 09:26:20;;;;;;;4.07;2.67;;;;;;;20.25;53.74;101644.91;4973406;28;20026;-79
2021/09/02 09:28:49;;;;;;;3.38;2.38;;;;;;;20.35;53.61;101639.19;4933660;28;20129;-78
2021/09/02 09:31:26;;;;;;;2.55;2.38;;;;;;;20.44;52.82;101635.72;4974335;28;20106;-76
2021/09/02 09:33:55;;;;;;;2.35;2.10;;;;;;;20.56;52.96;101636.09;4971705;28;20431;-78
2021/09/02 09:36:30;;;;;;;2.20;2.00;;;;;;;20.67;52.67;101628.41;4957661;28;20034;-75
2021/09/02 09:39:04;;;;;;;2.50;1.80;;;;;;;20.78;52.52;101638.22;4955505;28;20071;-75
2021/09/02 09:41:49;;;;;;;4.97;2.20;;;;;;;20.78;51.83;101629.88;4952561;28;20050;-76
2021/09/02 09:44:29;;;;;;;3.13;2.30;;;;;;;20.79;52.04;101627.91;4955003;28;20396;-75
2021/09/02 09:47:13;;;;;;;2.45;2.25;;;;;;;20.86;51.94;101637.50;4953206;28;20674;-74
2021/09/02 09:49:53;;;;;;;1.90;1.80;;;;;;;21.04;52.05;101637.72;4957030;28;20027;-75
2021/09/02 09:52:41;;;;;;;2.47;2.03;;;;;;;21.13;51.32;101607.25;4934165;29;20499;-74
2021/09/02 09:55:34;;;;;;;3.92;2.10;;;;;;;21.24;50.92;101630.94;4918813;29;20031;-74
2021/09/02 09:57:59;;;;;;;3.42;1.67;;;;;;;21.34;51.25;101630.72;4953855;28;20027;-75
2021/09/02 10:00:28;;;;;;;2.70;2.47;;;;;;;21.35;50.87;101623.19;4969567;28;20038;-76
2021/09/02 10:02:54;;;;;;;3.08;2.78;;;;;;;21.24;50.50;101615.06;4951289;28;20031;-76
2021/09/02 10:05:25;;;;;;;1.67;1.58;;;;;;;21.21;50.62;101609.31;4953655;28;20034;-75
2021/09/02 10:07:54;;;;;;;2.28;2.10;;;;;;;21.24;50.61;101614.25;4956573;28;20035;-75
2021/09/02 10:10:19;;;;;;;3.17;2.28;;;;;;;21.28;50.62;101609.72;4957975;28;20737;-76
2021/09/02 10:12:48;;;;;;;2.38;2.22;;;;;;;21.34;50.30;101613.22;4955767;28;20028;-75
2021/09/02 10:15:18;;;;;;;2.47;2.00;;;;;;;21.32;50.20;101607.97;4955332;28;20027;-75
2021/09/02 10:17:45;;;;;;;2.30;2.10;;;;;;;21.33;50.20;101600.44;4955833;28;20042;-75
2021/09/02 10:20:23;;;;;;;1.80;1.67;;;;;;;21.40;50.03;101598.88;4950548;28;20027;-76
2021/09/02 10:22:55;;;;;;;2.97;2.42;;;;;;;21.51;49.89;101609.81;4965359;28;20026;-75
2021/09/02 10:25:30;;;;;;;3.25;2.45;;;;;;;21.59;49.44;101603.53;4946977;28;20046;-77
2021/09/02 10:28:31;;;;;;;1.70;1.60;;;;;;;21.68;49.58;101600.81;4968627;28;20042;-74
2021/09/02 10:31:06;;;;;;;1.45;1.35;;;;;;;21.79;49.52;101593.88;4966941;28;20027;-74
2021/09/02 10:33:46;;;;;;;3.92;2.58;;;;;;;21.92;48.90;101590.22;4961077;28;20055;-74
2021/09/02 10:36:14;;;;;;;4.60;2.45;;;;;;;21.97;48.78;101594.84;4954918;28;20061;-75
2021/09/02 10:38:54;;;;;;;2.53;2.30;;;;;;;21.93;48.67;101589.09;4957101;28;20038;-74
2021/09/02 10:41:40;;;;;;;4.00;2.85;;;;;;;21.99;48.75;101595.38;4956360;28;20052;-75
2021/09/02 10:44:14;;;;;;;1.80;1.70;;;;;;;21.89;48.54;101590.03;4951772;28;20049;-74
2021/09/02 10:46:49;;;;;;;2.42;2.33;;;;;;;21.85;48.43;101586.25;4943883;28;20028;-71
2021/09/02 10:49:25;;;;;;;2.42;2.22;;;;;;;21.84;48.51;101565.91;4948519;28;20035;-71
2021/09/02 10:51:58;;;;;;;2.30;2.10;;;;;;;21.95;48.29;101572.06;4960478;28;20023;-71
2021/09/02 10:54:31;;;;;;;3.72;2.80;;;;;;;22.03;48.37;101565.72;4947105;28;20039;-73
2021/09/02 10:57:08;;;;;;;2.67;2.40;;;;;;;22.14;48.15;101558.78;4948460;28;20027;-73
2021/09/02 10:59:49;;;;;;;2.00;1.90;;;;;;;22.38;48.29;101579.91;4947257;28;21477;-73
2021/09/02 11:02:17;;;;;;;2.50;2.30;;;;;;;22.39;47.66;101570.44;4950558;28;20035;-73
2021/09/02 11:05:08;;;;;;;2.03;1.92;;;;;;;22.35;47.03;101569.41;4951594;28;20058;-73
2021/09/02 11:07:56;;;;;;;2.28;2.10;;;;;;;22.21;47.48;101563.06;4943804;28;20393;-72
2021/09/02 11:10:34;;;;;;;;;;;;;;;;;;;;;
2021/09/02 11:13:18;;;;;;;3.03;2.20;;;;;;;21.88;47.65;101566.13;4950808;28;20031;-72
2021/09/02 11:15:44;;;;;;;2.10;2.00;;;;;;;21.75;47.75;101562.25;4948912;28;20049;-73
2021/09/02 11:18:09;;;;;;;1.67;1.58;;;;;;;21.69;48.02;101555.97;4949997;28;20030;-72
2021/09/02 11:20:42;;;;;;;1.90;1.77;;;;;;;21.73;47.82;101567.31;4948195;28;20027;-73
2021/09/02 11:23:17;;;;;;;1.95;1.75;;;;;;;21.74;47.87;101572.56;4964609;28;20636;-72
2021/09/02 11:25:52;;;;;;;2.38;1.70;;;;;;;21.71;48.05;101575.97;4949682;28;20033;-72
2021/09/02 11:28:27;;;;;;;1.75;1.60;;;;;;;21.67;48.28;101560.19;4946792;28;20082;-72
2021/09/02 11:30:53;;;;;;;2.40;2.20;;;;;;;21.70;48.21;101565.13;4952219;28;20039;-72
2021/09/02 11:33:22;;;;;;;2.22;2.00;;;;;;;21.84;48.26;101562.31;4963451;28;20050;-69